sensor_id;sensor_type;location;lat;lon;timestamp;temperature;humidity
14142;DHT22;7151;52.246;4.820;2023-08-24T00:02:00;24.30;66.20
14142;DHT22;7151;52.246;4.820;2023-08-24T00:04:27;24.20;66.30
14142;DHT22;7151;52.246;4.820;2023-08-24T00:06:53;24.20;66.40
14142;DHT22;7151;52.246;4.820;2023-08-24T00:09:19;24.30;66.70
14142;DHT22;7151;52.246;4.820;2023-08-24T00:11:45;24.20;66.70
14142;DHT22;7151;52.246;4.820;2023-08-24T00:14:10;24.20;66.80
14142;DHT22;7151;52.246;4.820;2023-08-24T00:16:37;24.20;66.80
14142;DHT22;7151;52.246;4.820;2023-08-24T00:19:02;24.30;67.00
14142;DHT22;7151;52.246;4.820;2023-08-24T00:21:28;24.30;67.10
14142;DHT22;7151;52.246;4.820;2023-08-24T00:23:54;24.30;67.20
14142;DHT22;7151;52.246;4.820;2023-08-24T00:26:20;24.30;67.30
14142;DHT22;7151;52.246;4.820;2023-08-24T00:28:46;24.30;67.80
14142;DHT22;7151;52.246;4.820;2023-08-24T00:31:12;24.30;67.50
14142;DHT22;7151;52.246;4.820;2023-08-24T00:33:37;24.30;67.50
14142;DHT22;7151;52.246;4.820;2023-08-24T00:36:05;24.30;67.60
14142;DHT22;7151;52.246;4.820;2023-08-24T00:38:31;24.30;67.80
14142;DHT22;7151;52.246;4.820;2023-08-24T00:40:58;24.30;67.90
14142;DHT22;7151;52.246;4.820;2023-08-24T00:43:25;24.20;67.90
14142;DHT22;7151;52.246;4.820;2023-08-24T00:45:51;24.20;68.20
14142;DHT22;7151;52.246;4.820;2023-08-24T00:48:18;24.20;68.20
14142;DHT22;7151;52.246;4.820;2023-08-24T00:50:44;24.30;68.40
14142;DHT22;7151;52.246;4.820;2023-08-24T00:53:10;24.30;68.60
14142;DHT22;7151;52.246;4.820;2023-08-24T00:55:36;24.20;68.60
14142;DHT22;7151;52.246;4.820;2023-08-24T00:58:02;24.20;68.80
14142;DHT22;7151;52.246;4.820;2023-08-24T01:00:28;24.20;68.80
14142;DHT22;7151;52.246;4.820;2023-08-24T01:02:54;24.20;68.90
14142;DHT22;7151;52.246;4.820;2023-08-24T01:05:20;24.20;69.00
14142;DHT22;7151;52.246;4.820;2023-08-24T01:07:46;24.20;69.10
14142;DHT22;7151;52.246;4.820;2023-08-24T01:10:12;24.20;69.20
14142;DHT22;7151;52.246;4.820;2023-08-24T01:13:02;24.20;69.90
14142;DHT22;7151;52.246;4.820;2023-08-24T01:15:38;24.20;69.40
14142;DHT22;7151;52.246;4.820;2023-08-24T01:18:12;24.20;69.60
14142;DHT22;7151;52.246;4.820;2023-08-24T01:20:40;24.20;69.70
14142;DHT22;7151;52.246;4.820;2023-08-24T01:23:29;24.10;70.00
14142;DHT22;7151;52.246;4.820;2023-08-24T01:26:07;24.10;70.30
14142;DHT22;7151;52.246;4.820;2023-08-24T01:28:33;24.10;70.40
14142;DHT22;7151;52.246;4.820;2023-08-24T01:30:59;24.10;70.40
14142;DHT22;7151;52.246;4.820;2023-08-24T01:33:25;24.10;70.60
14142;DHT22;7151;52.246;4.820;2023-08-24T01:35:51;24.00;70.90
14142;DHT22;7151;52.246;4.820;2023-08-24T01:38:16;24.00;71.20
14142;DHT22;7151;52.246;4.820;2023-08-24T01:40:51;24.00;71.40
14142;DHT22;7151;52.246;4.820;2023-08-24T01:43:18;24.00;71.70
14142;DHT22;7151;52.246;4.820;2023-08-24T01:45:46;24.00;71.80
14142;DHT22;7151;52.246;4.820;2023-08-24T01:48:13;24.00;72.00
14142;DHT22;7151;52.246;4.820;2023-08-24T01:50:40;23.90;72.00
14142;DHT22;7151;52.246;4.820;2023-08-24T01:53:07;23.90;72.10
14142;DHT22;7151;52.246;4.820;2023-08-24T01:55:32;23.90;72.10
14142;DHT22;7151;52.246;4.820;2023-08-24T01:57:59;23.90;72.30
14142;DHT22;7151;52.246;4.820;2023-08-24T02:00:25;23.80;72.70
14142;DHT22;7151;52.246;4.820;2023-08-24T02:02:51;23.80;72.50
14142;DHT22;7151;52.246;4.820;2023-08-24T02:05:16;23.80;72.60
14142;DHT22;7151;52.246;4.820;2023-08-24T02:07:42;23.80;72.70
14142;DHT22;7151;52.246;4.820;2023-08-24T02:10:07;23.80;72.80
14142;DHT22;7151;52.246;4.820;2023-08-24T02:12:33;23.80;72.90
14142;DHT22;7151;52.246;4.820;2023-08-24T02:14:58;23.80;73.10
14142;DHT22;7151;52.246;4.820;2023-08-24T02:17:25;23.80;73.30
14142;DHT22;7151;52.246;4.820;2023-08-24T02:19:51;23.80;73.40
14142;DHT22;7151;52.246;4.820;2023-08-24T02:22:16;23.80;73.50
14142;DHT22;7151;52.246;4.820;2023-08-24T02:24:43;23.70;73.60
14142;DHT22;7151;52.246;4.820;2023-08-24T02:27:08;23.70;73.70
14142;DHT22;7151;52.246;4.820;2023-08-24T02:29:34;23.70;73.80
14142;DHT22;7151;52.246;4.820;2023-08-24T02:31:59;23.70;74.00
14142;DHT22;7151;52.246;4.820;2023-08-24T02:34:25;23.70;74.10
14142;DHT22;7151;52.246;4.820;2023-08-24T02:36:50;23.70;74.10
14142;DHT22;7151;52.246;4.820;2023-08-24T02:39:16;23.70;74.20
14142;DHT22;7151;52.246;4.820;2023-08-24T02:41:41;23.70;74.30
14142;DHT22;7151;52.246;4.820;2023-08-24T02:44:07;23.70;74.30
14142;DHT22;7151;52.246;4.820;2023-08-24T02:46:32;23.60;74.30
14142;DHT22;7151;52.246;4.820;2023-08-24T02:48:58;23.60;74.50
14142;DHT22;7151;52.246;4.820;2023-08-24T02:51:24;23.60;74.60
14142;DHT22;7151;52.246;4.820;2023-08-24T02:53:50;23.60;74.60
14142;DHT22;7151;52.246;4.820;2023-08-24T02:56:16;23.60;74.60
14142;DHT22;7151;52.246;4.820;2023-08-24T02:58:41;23.50;74.60
14142;DHT22;7151;52.246;4.820;2023-08-24T03:01:07;23.60;74.60
14142;DHT22;7151;52.246;4.820;2023-08-24T03:03:34;23.50;74.60
14142;DHT22;7151;52.246;4.820;2023-08-24T03:06:02;23.50;74.70
14142;DHT22;7151;52.246;4.820;2023-08-24T03:08:29;23.50;74.70
14142;DHT22;7151;52.246;4.820;2023-08-24T03:10:55;23.50;74.80
14142;DHT22;7151;52.246;4.820;2023-08-24T03:13:21;23.50;74.80
14142;DHT22;7151;52.246;4.820;2023-08-24T03:15:46;23.50;74.90
14142;DHT22;7151;52.246;4.820;2023-08-24T03:18:13;23.50;74.90
14142;DHT22;7151;52.246;4.820;2023-08-24T03:20:39;23.40;74.80
14142;DHT22;7151;52.246;4.820;2023-08-24T03:23:06;23.40;75.00
14142;DHT22;7151;52.246;4.820;2023-08-24T03:25:35;23.40;75.00
14142;DHT22;7151;52.246;4.820;2023-08-24T03:28:02;23.40;75.20
14142;DHT22;7151;52.246;4.820;2023-08-24T03:30:27;23.30;75.20
14142;DHT22;7151;52.246;4.820;2023-08-24T03:32:53;23.30;75.30
14142;DHT22;7151;52.246;4.820;2023-08-24T03:35:18;23.30;75.30
14142;DHT22;7151;52.246;4.820;2023-08-24T03:37:44;23.30;75.40
14142;DHT22;7151;52.246;4.820;2023-08-24T03:40:11;23.30;76.20
14142;DHT22;7151;52.246;4.820;2023-08-24T03:42:36;23.30;75.60
14142;DHT22;7151;52.246;4.820;2023-08-24T03:45:02;23.20;75.60
14142;DHT22;7151;52.246;4.820;2023-08-24T03:47:28;23.20;75.70
14142;DHT22;7151;52.246;4.820;2023-08-24T03:49:54;23.20;75.70
14142;DHT22;7151;52.246;4.820;2023-08-24T03:52:20;23.20;75.70
14142;DHT22;7151;52.246;4.820;2023-08-24T03:54:46;23.20;75.70
14142;DHT22;7151;52.246;4.820;2023-08-24T03:57:11;23.20;75.70
14142;DHT22;7151;52.246;4.820;2023-08-24T03:59:37;23.20;75.70
14142;DHT22;7151;52.246;4.820;2023-08-24T04:02:02;23.10;75.70
14142;DHT22;7151;52.246;4.820;2023-08-24T04:04:29;23.10;75.90
14142;DHT22;7151;52.246;4.820;2023-08-24T04:06:55;23.10;75.90
14142;DHT22;7151;52.246;4.820;2023-08-24T04:09:20;23.10;76.00
14142;DHT22;7151;52.246;4.820;2023-08-24T04:11:46;23.10;75.90
14142;DHT22;7151;52.246;4.820;2023-08-24T04:14:11;23.10;75.90
14142;DHT22;7151;52.246;4.820;2023-08-24T04:16:37;23.10;75.90
14142;DHT22;7151;52.246;4.820;2023-08-24T04:19:03;23.00;75.90
14142;DHT22;7151;52.246;4.820;2023-08-24T04:21:28;23.00;76.00
14142;DHT22;7151;52.246;4.820;2023-08-24T04:23:54;23.00;76.00
14142;DHT22;7151;52.246;4.820;2023-08-24T04:26:20;23.00;76.10
14142;DHT22;7151;52.246;4.820;2023-08-24T04:28:45;23.00;76.20
14142;DHT22;7151;52.246;4.820;2023-08-24T04:31:11;22.90;76.10
14142;DHT22;7151;52.246;4.820;2023-08-24T04:33:36;22.90;76.20
14142;DHT22;7151;52.246;4.820;2023-08-24T04:36:02;22.90;76.10
14142;DHT22;7151;52.246;4.820;2023-08-24T04:38:31;22.90;76.20
14142;DHT22;7151;52.246;4.820;2023-08-24T04:40:56;22.90;76.30
14142;DHT22;7151;52.246;4.820;2023-08-24T04:43:23;22.80;76.40
14142;DHT22;7151;52.246;4.820;2023-08-24T04:45:50;22.80;76.40
14142;DHT22;7151;52.246;4.820;2023-08-24T04:48:22;22.80;76.50
14142;DHT22;7151;52.246;4.820;2023-08-24T04:50:49;22.80;76.70
14142;DHT22;7151;52.246;4.820;2023-08-24T04:53:17;22.80;76.70
14142;DHT22;7151;52.246;4.820;2023-08-24T04:55:43;22.80;76.70
14142;DHT22;7151;52.246;4.820;2023-08-24T04:58:10;22.70;76.70
14142;DHT22;7151;52.246;4.820;2023-08-24T05:00:37;22.70;76.80
14142;DHT22;7151;52.246;4.820;2023-08-24T05:03:06;22.70;76.90
14142;DHT22;7151;52.246;4.820;2023-08-24T05:05:32;22.70;76.80
14142;DHT22;7151;52.246;4.820;2023-08-24T05:07:59;22.70;76.90
14142;DHT22;7151;52.246;4.820;2023-08-24T05:10:25;22.70;77.00
14142;DHT22;7151;52.246;4.820;2023-08-24T05:12:50;22.70;77.10
14142;DHT22;7151;52.246;4.820;2023-08-24T05:15:16;22.70;77.20
14142;DHT22;7151;52.246;4.820;2023-08-24T05:17:42;22.60;78.00
14142;DHT22;7151;52.246;4.820;2023-08-24T05:20:08;22.60;77.40
14142;DHT22;7151;52.246;4.820;2023-08-24T05:22:36;22.60;77.50
14142;DHT22;7151;52.246;4.820;2023-08-24T05:25:02;22.60;77.50
14142;DHT22;7151;52.246;4.820;2023-08-24T05:27:27;22.60;77.60
14142;DHT22;7151;52.246;4.820;2023-08-24T05:29:53;22.60;77.80
14142;DHT22;7151;52.246;4.820;2023-08-24T05:32:18;22.60;77.80
14142;DHT22;7151;52.246;4.820;2023-08-24T05:34:45;22.60;77.80
14142;DHT22;7151;52.246;4.820;2023-08-24T05:37:11;22.60;78.00
14142;DHT22;7151;52.246;4.820;2023-08-24T05:39:36;22.60;78.00
14142;DHT22;7151;52.246;4.820;2023-08-24T05:42:02;22.60;78.10
14142;DHT22;7151;52.246;4.820;2023-08-24T05:44:27;22.60;78.10
14142;DHT22;7151;52.246;4.820;2023-08-24T05:46:53;22.60;78.20
14142;DHT22;7151;52.246;4.820;2023-08-24T05:49:19;22.60;78.40
14142;DHT22;7151;52.246;4.820;2023-08-24T05:51:44;22.60;78.40
14142;DHT22;7151;52.246;4.820;2023-08-24T05:54:10;22.60;78.50
14142;DHT22;7151;52.246;4.820;2023-08-24T05:56:35;22.60;78.70
14142;DHT22;7151;52.246;4.820;2023-08-24T05:59:01;22.70;78.80
14142;DHT22;7151;52.246;4.820;2023-08-24T06:01:26;22.70;78.90
14142;DHT22;7151;52.246;4.820;2023-08-24T06:03:52;22.70;79.00
14142;DHT22;7151;52.246;4.820;2023-08-24T06:06:18;22.70;79.00
14142;DHT22;7151;52.246;4.820;2023-08-24T06:08:43;22.70;79.10
14142;DHT22;7151;52.246;4.820;2023-08-24T06:11:09;22.70;79.10
14142;DHT22;7151;52.246;4.820;2023-08-24T06:13:35;22.70;79.10
14142;DHT22;7151;52.246;4.820;2023-08-24T06:16:01;22.80;79.30
14142;DHT22;7151;52.246;4.820;2023-08-24T06:18:27;22.80;79.30
14142;DHT22;7151;52.246;4.820;2023-08-24T06:20:53;22.80;79.40
14142;DHT22;7151;52.246;4.820;2023-08-24T06:23:19;22.80;79.60
14142;DHT22;7151;52.246;4.820;2023-08-24T06:25:45;22.80;79.60
14142;DHT22;7151;52.246;4.820;2023-08-24T06:28:11;22.80;79.70
14142;DHT22;7151;52.246;4.820;2023-08-24T06:30:41;22.80;79.90
14142;DHT22;7151;52.246;4.820;2023-08-24T06:33:08;22.80;80.00
14142;DHT22;7151;52.246;4.820;2023-08-24T06:35:34;22.90;80.00
14142;DHT22;7151;52.246;4.820;2023-08-24T06:38:00;22.90;80.00
14142;DHT22;7151;52.246;4.820;2023-08-24T06:40:26;22.90;80.00
14142;DHT22;7151;52.246;4.820;2023-08-24T06:42:52;22.90;80.20
14142;DHT22;7151;52.246;4.820;2023-08-24T06:45:17;22.90;80.20
14142;DHT22;7151;52.246;4.820;2023-08-24T06:47:44;22.90;80.20
14142;DHT22;7151;52.246;4.820;2023-08-24T06:50:10;22.90;80.30
14142;DHT22;7151;52.246;4.820;2023-08-24T06:52:36;23.00;80.60
14142;DHT22;7151;52.246;4.820;2023-08-24T06:55:02;23.00;80.60
14142;DHT22;7151;52.246;4.820;2023-08-24T06:57:28;23.00;80.70
14142;DHT22;7151;52.246;4.820;2023-08-24T06:59:54;23.00;80.70
14142;DHT22;7151;52.246;4.820;2023-08-24T07:02:20;23.10;80.90
14142;DHT22;7151;52.246;4.820;2023-08-24T07:04:46;23.10;81.00
14142;DHT22;7151;52.246;4.820;2023-08-24T07:07:12;23.10;81.00
14142;DHT22;7151;52.246;4.820;2023-08-24T07:09:38;23.10;81.20
14142;DHT22;7151;52.246;4.820;2023-08-24T07:12:05;23.20;81.30
14142;DHT22;7151;52.246;4.820;2023-08-24T07:14:33;23.20;81.40
14142;DHT22;7151;52.246;4.820;2023-08-24T07:16:59;23.20;81.50
14142;DHT22;7151;52.246;4.820;2023-08-24T07:19:24;23.30;81.70
14142;DHT22;7151;52.246;4.820;2023-08-24T07:21:50;23.30;81.80
14142;DHT22;7151;52.246;4.820;2023-08-24T07:24:16;23.30;82.00
14142;DHT22;7151;52.246;4.820;2023-08-24T07:26:44;23.40;82.10
14142;DHT22;7151;52.246;4.820;2023-08-24T07:29:11;23.40;82.00
14142;DHT22;7151;52.246;4.820;2023-08-24T07:31:36;23.40;82.10
14142;DHT22;7151;52.246;4.820;2023-08-24T07:34:03;23.40;82.10
14142;DHT22;7151;52.246;4.820;2023-08-24T07:36:29;23.50;82.10
14142;DHT22;7151;52.246;4.820;2023-08-24T07:38:56;23.60;82.20
14142;DHT22;7151;52.246;4.820;2023-08-24T07:41:21;23.60;82.40
14142;DHT22;7151;52.246;4.820;2023-08-24T07:43:47;23.60;82.30
14142;DHT22;7151;52.246;4.820;2023-08-24T07:46:13;23.70;82.40
14142;DHT22;7151;52.246;4.820;2023-08-24T07:48:39;23.70;82.40
14142;DHT22;7151;52.246;4.820;2023-08-24T07:51:05;23.70;82.30
14142;DHT22;7151;52.246;4.820;2023-08-24T07:53:30;23.80;82.30
14142;DHT22;7151;52.246;4.820;2023-08-24T07:55:59;23.80;82.50
14142;DHT22;7151;52.246;4.820;2023-08-24T07:58:25;23.90;82.60
14142;DHT22;7151;52.246;4.820;2023-08-24T08:00:52;23.90;82.60
14142;DHT22;7151;52.246;4.820;2023-08-24T08:03:18;24.00;82.50
14142;DHT22;7151;52.246;4.820;2023-08-24T08:05:45;24.00;82.20
14142;DHT22;7151;52.246;4.820;2023-08-24T08:08:11;24.10;81.80
14142;DHT22;7151;52.246;4.820;2023-08-24T08:10:37;24.10;81.50
14142;DHT22;7151;52.246;4.820;2023-08-24T08:13:03;24.10;81.20
14142;DHT22;7151;52.246;4.820;2023-08-24T08:15:29;24.20;81.10
14142;DHT22;7151;52.246;4.820;2023-08-24T08:17:55;24.20;80.90
14142;DHT22;7151;52.246;4.820;2023-08-24T08:20:20;24.30;80.80
14142;DHT22;7151;52.246;4.820;2023-08-24T08:22:46;24.30;80.60
14142;DHT22;7151;52.246;4.820;2023-08-24T08:25:12;24.30;80.50
14142;DHT22;7151;52.246;4.820;2023-08-24T08:27:37;24.30;80.40
14142;DHT22;7151;52.246;4.820;2023-08-24T08:30:03;24.30;80.30
14142;DHT22;7151;52.246;4.820;2023-08-24T08:32:32;24.30;80.30
14142;DHT22;7151;52.246;4.820;2023-08-24T08:34:58;24.40;80.60
14142;DHT22;7151;52.246;4.820;2023-08-24T08:37:25;24.40;80.70
14142;DHT22;7151;52.246;4.820;2023-08-24T08:39:51;24.40;80.60
14142;DHT22;7151;52.246;4.820;2023-08-24T08:42:16;24.50;80.50
14142;DHT22;7151;52.246;4.820;2023-08-24T08:44:45;24.50;80.40
14142;DHT22;7151;52.246;4.820;2023-08-24T08:47:11;24.50;80.40
14142;DHT22;7151;52.246;4.820;2023-08-24T08:49:42;24.50;80.40
14142;DHT22;7151;52.246;4.820;2023-08-24T08:52:09;24.60;80.30
14142;DHT22;7151;52.246;4.820;2023-08-24T08:54:34;24.60;80.30
14142;DHT22;7151;52.246;4.820;2023-08-24T08:57:01;24.60;80.20
14142;DHT22;7151;52.246;4.820;2023-08-24T08:59:27;24.70;80.30
14142;DHT22;7151;52.246;4.820;2023-08-24T09:01:57;24.60;80.10
14142;DHT22;7151;52.246;4.820;2023-08-24T09:04:33;24.70;80.10
14142;DHT22;7151;52.246;4.820;2023-08-24T09:06:59;24.70;80.10
14142;DHT22;7151;52.246;4.820;2023-08-24T09:09:29;24.70;80.10
14142;DHT22;7151;52.246;4.820;2023-08-24T09:11:55;24.70;80.20
14142;DHT22;7151;52.246;4.820;2023-08-24T09:14:20;24.70;80.30
14142;DHT22;7151;52.246;4.820;2023-08-24T09:16:46;24.80;80.30
14142;DHT22;7151;52.246;4.820;2023-08-24T09:19:12;24.80;80.40
14142;DHT22;7151;52.246;4.820;2023-08-24T09:21:38;24.80;81.20
14142;DHT22;7151;52.246;4.820;2023-08-24T09:24:06;24.80;80.60
14142;DHT22;7151;52.246;4.820;2023-08-24T09:26:33;24.80;80.50
14142;DHT22;7151;52.246;4.820;2023-08-24T09:29:00;24.80;80.40
14142;DHT22;7151;52.246;4.820;2023-08-24T09:31:38;24.90;80.40
14142;DHT22;7151;52.246;4.820;2023-08-24T09:34:05;24.80;80.60
14142;DHT22;7151;52.246;4.820;2023-08-24T09:36:35;24.90;80.60
14142;DHT22;7151;52.246;4.820;2023-08-24T09:39:01;24.80;80.60
14142;DHT22;7151;52.246;4.820;2023-08-24T09:41:43;24.90;80.60
14142;DHT22;7151;52.246;4.820;2023-08-24T09:44:10;24.90;80.60
14142;DHT22;7151;52.246;4.820;2023-08-24T09:46:37;24.90;80.50
14142;DHT22;7151;52.246;4.820;2023-08-24T09:49:07;24.90;80.50
14142;DHT22;7151;52.246;4.820;2023-08-24T09:51:34;24.90;80.50
14142;DHT22;7151;52.246;4.820;2023-08-24T09:54:10;24.90;80.50
14142;DHT22;7151;52.246;4.820;2023-08-24T09:56:37;25.00;80.50
14142;DHT22;7151;52.246;4.820;2023-08-24T09:59:13;25.00;80.50
14142;DHT22;7151;52.246;4.820;2023-08-24T10:01:42;24.90;80.50
14142;DHT22;7151;52.246;4.820;2023-08-24T10:04:09;25.00;80.60
14142;DHT22;7151;52.246;4.820;2023-08-24T10:06:36;25.00;80.60
14142;DHT22;7151;52.246;4.820;2023-08-24T10:09:05;25.00;80.50
14142;DHT22;7151;52.246;4.820;2023-08-24T10:11:34;25.00;80.40
14142;DHT22;7151;52.246;4.820;2023-08-24T10:14:10;25.00;80.40
14142;DHT22;7151;52.246;4.820;2023-08-24T10:16:37;25.00;80.40
14142;DHT22;7151;52.246;4.820;2023-08-24T10:19:04;25.00;80.40
14142;DHT22;7151;52.246;4.820;2023-08-24T10:21:31;25.00;80.50
14142;DHT22;7151;52.246;4.820;2023-08-24T10:23:57;25.00;80.50
14142;DHT22;7151;52.246;4.820;2023-08-24T10:26:26;25.10;80.60
14142;DHT22;7151;52.246;4.820;2023-08-24T10:28:52;25.10;80.70
14142;DHT22;7151;52.246;4.820;2023-08-24T10:31:19;25.00;80.90
14142;DHT22;7151;52.246;4.820;2023-08-24T10:33:46;25.10;81.30
14142;DHT22;7151;52.246;4.820;2023-08-24T10:36:15;25.00;81.40
14142;DHT22;7151;52.246;4.820;2023-08-24T10:38:43;25.10;81.60
14142;DHT22;7151;52.246;4.820;2023-08-24T10:41:09;25.10;81.70
14142;DHT22;7151;52.246;4.820;2023-08-24T10:43:40;25.10;81.90
14142;DHT22;7151;52.246;4.820;2023-08-24T10:46:13;25.00;82.10
14142;DHT22;7151;52.246;4.820;2023-08-24T10:53:40;25.10;82.90
14142;DHT22;7151;52.246;4.820;2023-08-24T10:56:16;25.10;83.20
14142;DHT22;7151;52.246;4.820;2023-08-24T10:58:43;25.10;83.70
14142;DHT22;7151;52.246;4.820;2023-08-24T11:01:17;25.10;83.70
14142;DHT22;7151;52.246;4.820;2023-08-24T11:03:49;25.10;84.00
14142;DHT22;7151;52.246;4.820;2023-08-24T11:06:23;25.10;84.20
14142;DHT22;7151;52.246;4.820;2023-08-24T11:09:05;25.10;84.30
14142;DHT22;7151;52.246;4.820;2023-08-24T11:11:32;25.10;84.30
14142;DHT22;7151;52.246;4.820;2023-08-24T11:14:17;25.10;84.40
14142;DHT22;7151;52.246;4.820;2023-08-24T11:16:48;25.10;84.60
14142;DHT22;7151;52.246;4.820;2023-08-24T11:19:15;25.10;84.30
14142;DHT22;7151;52.246;4.820;2023-08-24T11:21:45;25.10;84.30
14142;DHT22;7151;52.246;4.820;2023-08-24T11:24:13;25.10;84.90
14142;DHT22;7151;52.246;4.820;2023-08-24T11:26:44;25.10;84.00
14142;DHT22;7151;52.246;4.820;2023-08-24T11:29:10;25.00;84.10
14142;DHT22;7151;52.246;4.820;2023-08-24T11:31:36;25.10;84.20
14142;DHT22;7151;52.246;4.820;2023-08-24T11:34:02;25.10;84.20
14142;DHT22;7151;52.246;4.820;2023-08-24T11:39:27;25.00;84.00
14142;DHT22;7151;52.246;4.820;2023-08-24T11:44:25;25.00;84.10
14142;DHT22;7151;52.246;4.820;2023-08-24T11:46:50;25.00;84.10
14142;DHT22;7151;52.246;4.820;2023-08-24T11:49:16;25.00;84.00
14142;DHT22;7151;52.246;4.820;2023-08-24T11:51:42;25.00;84.10
14142;DHT22;7151;52.246;4.820;2023-08-24T11:54:07;25.00;84.30
14142;DHT22;7151;52.246;4.820;2023-08-24T11:56:43;25.00;84.30
14142;DHT22;7151;52.246;4.820;2023-08-24T11:59:13;25.00;84.30
14142;DHT22;7151;52.246;4.820;2023-08-24T12:01:40;25.00;84.30
14142;DHT22;7151;52.246;4.820;2023-08-24T12:04:06;25.00;84.40
14142;DHT22;7151;52.246;4.820;2023-08-24T12:06:33;25.00;85.10
14142;DHT22;7151;52.246;4.820;2023-08-24T12:08:58;25.00;84.60
14142;DHT22;7151;52.246;4.820;2023-08-24T12:11:24;25.00;84.60
14142;DHT22;7151;52.246;4.820;2023-08-24T12:13:53;25.10;84.80
14142;DHT22;7151;52.246;4.820;2023-08-24T12:16:20;25.10;84.90
14142;DHT22;7151;52.246;4.820;2023-08-24T12:18:54;25.10;85.00
14142;DHT22;7151;52.246;4.820;2023-08-24T12:21:21;25.10;85.20
14142;DHT22;7151;52.246;4.820;2023-08-24T12:24:03;25.20;85.10
14142;DHT22;7151;52.246;4.820;2023-08-24T12:26:31;25.20;85.00
14142;DHT22;7151;52.246;4.820;2023-08-24T12:29:09;25.20;84.80
14142;DHT22;7151;52.246;4.820;2023-08-24T12:31:35;25.30;85.00
14142;DHT22;7151;52.246;4.820;2023-08-24T12:34:05;25.30;85.00
14142;DHT22;7151;52.246;4.820;2023-08-24T12:36:36;25.20;85.00
14142;DHT22;7151;52.246;4.820;2023-08-24T12:39:02;25.30;85.30
14142;DHT22;7151;52.246;4.820;2023-08-24T12:41:31;25.30;85.30
14142;DHT22;7151;52.246;4.820;2023-08-24T12:43:57;25.30;85.40
14142;DHT22;7151;52.246;4.820;2023-08-24T12:46:23;25.30;85.30
14142;DHT22;7151;52.246;4.820;2023-08-24T12:48:49;25.30;85.10
14142;DHT22;7151;52.246;4.820;2023-08-24T12:51:15;25.30;84.80
14142;DHT22;7151;52.246;4.820;2023-08-24T12:53:41;25.30;84.60
14142;DHT22;7151;52.246;4.820;2023-08-24T12:56:07;25.30;84.60
14142;DHT22;7151;52.246;4.820;2023-08-24T12:58:32;25.30;84.70
14142;DHT22;7151;52.246;4.820;2023-08-24T13:00:59;25.30;84.80
14142;DHT22;7151;52.246;4.820;2023-08-24T13:03:25;25.30;85.00
14142;DHT22;7151;52.246;4.820;2023-08-24T13:05:50;25.30;84.90
14142;DHT22;7151;52.246;4.820;2023-08-24T13:08:16;25.30;84.90
14142;DHT22;7151;52.246;4.820;2023-08-24T13:10:41;25.30;84.90
14142;DHT22;7151;52.246;4.820;2023-08-24T13:13:07;25.30;84.90
14142;DHT22;7151;52.246;4.820;2023-08-24T13:15:33;25.30;85.10
14142;DHT22;7151;52.246;4.820;2023-08-24T13:17:59;25.30;85.10
14142;DHT22;7151;52.246;4.820;2023-08-24T13:20:25;25.40;85.30
14142;DHT22;7151;52.246;4.820;2023-08-24T13:22:53;25.40;85.50
14142;DHT22;7151;52.246;4.820;2023-08-24T13:25:19;25.50;85.80
14142;DHT22;7151;52.246;4.820;2023-08-24T13:27:45;25.50;86.00
14142;DHT22;7151;52.246;4.820;2023-08-24T13:30:11;25.60;86.20
14142;DHT22;7151;52.246;4.820;2023-08-24T13:32:38;25.60;86.10
14142;DHT22;7151;52.246;4.820;2023-08-24T13:35:04;25.70;86.10
14142;DHT22;7151;52.246;4.820;2023-08-24T13:37:30;25.80;86.20
14142;DHT22;7151;52.246;4.820;2023-08-24T13:39:57;25.80;85.90
14142;DHT22;7151;52.246;4.820;2023-08-24T13:42:23;25.80;85.70
14142;DHT22;7151;52.246;4.820;2023-08-24T13:44:48;25.90;85.60
14142;DHT22;7151;52.246;4.820;2023-08-24T13:47:14;25.90;85.40
14142;DHT22;7151;52.246;4.820;2023-08-24T13:49:40;26.00;85.30
14142;DHT22;7151;52.246;4.820;2023-08-24T13:52:06;26.00;85.20
14142;DHT22;7151;52.246;4.820;2023-08-24T13:54:31;26.00;85.10
14142;DHT22;7151;52.246;4.820;2023-08-24T13:56:57;26.00;84.90
14142;DHT22;7151;52.246;4.820;2023-08-24T13:59:24;26.10;85.00
14142;DHT22;7151;52.246;4.820;2023-08-24T14:01:49;26.10;84.90
14142;DHT22;7151;52.246;4.820;2023-08-24T14:04:15;26.10;84.90
14142;DHT22;7151;52.246;4.820;2023-08-24T14:06:41;26.10;85.00
14142;DHT22;7151;52.246;4.820;2023-08-24T14:09:06;26.10;85.00
14142;DHT22;7151;52.246;4.820;2023-08-24T14:11:32;26.10;85.10
14142;DHT22;7151;52.246;4.820;2023-08-24T14:13:58;26.20;85.10
14142;DHT22;7151;52.246;4.820;2023-08-24T14:16:24;26.20;85.00
14142;DHT22;7151;52.246;4.820;2023-08-24T14:18:51;26.20;85.20
14142;DHT22;7151;52.246;4.820;2023-08-24T14:21:17;26.20;85.20
14142;DHT22;7151;52.246;4.820;2023-08-24T14:23:43;26.20;85.20
14142;DHT22;7151;52.246;4.820;2023-08-24T14:26:09;26.20;85.10
14142;DHT22;7151;52.246;4.820;2023-08-24T14:29:02;26.20;85.00
14142;DHT22;7151;52.246;4.820;2023-08-24T14:31:28;26.20;84.90
14142;DHT22;7151;52.246;4.820;2023-08-24T14:33:54;26.20;84.90
14142;DHT22;7151;52.246;4.820;2023-08-24T14:36:20;26.20;84.90
14142;DHT22;7151;52.246;4.820;2023-08-24T14:38:46;26.20;85.00
14142;DHT22;7151;52.246;4.820;2023-08-24T14:41:13;26.30;85.20
14142;DHT22;7151;52.246;4.820;2023-08-24T14:43:39;26.30;85.40
14142;DHT22;7151;52.246;4.820;2023-08-24T14:46:05;26.30;85.30
14142;DHT22;7151;52.246;4.820;2023-08-24T14:48:31;26.30;85.20
14142;DHT22;7151;52.246;4.820;2023-08-24T14:50:57;26.30;85.10
14142;DHT22;7151;52.246;4.820;2023-08-24T14:53:24;26.30;85.00
14142;DHT22;7151;52.246;4.820;2023-08-24T14:55:50;26.30;85.00
14142;DHT22;7151;52.246;4.820;2023-08-24T14:58:16;26.30;85.00
14142;DHT22;7151;52.246;4.820;2023-08-24T15:00:42;26.30;85.10
14142;DHT22;7151;52.246;4.820;2023-08-24T15:03:07;26.30;85.10
14142;DHT22;7151;52.246;4.820;2023-08-24T15:05:41;26.30;85.10
14142;DHT22;7151;52.246;4.820;2023-08-24T15:08:07;26.30;85.10
14142;DHT22;7151;52.246;4.820;2023-08-24T15:10:33;26.30;85.20
14142;DHT22;7151;52.246;4.820;2023-08-24T15:12:58;26.30;85.30
14142;DHT22;7151;52.246;4.820;2023-08-24T15:15:24;26.30;85.30
14142;DHT22;7151;52.246;4.820;2023-08-24T15:17:49;26.30;85.40
14142;DHT22;7151;52.246;4.820;2023-08-24T15:20:15;26.30;85.60
14142;DHT22;7151;52.246;4.820;2023-08-24T15:22:41;26.40;85.70
14142;DHT22;7151;52.246;4.820;2023-08-24T15:25:07;26.30;85.70
14142;DHT22;7151;52.246;4.820;2023-08-24T15:27:33;26.40;85.70
14142;DHT22;7151;52.246;4.820;2023-08-24T15:29:58;26.40;85.70
14142;DHT22;7151;52.246;4.820;2023-08-24T15:32:26;26.40;85.90
14142;DHT22;7151;52.246;4.820;2023-08-24T15:34:52;26.50;86.00
14142;DHT22;7151;52.246;4.820;2023-08-24T15:37:19;26.50;86.10
14142;DHT22;7151;52.246;4.820;2023-08-24T15:39:45;26.50;86.10
14142;DHT22;7151;52.246;4.820;2023-08-24T15:42:10;26.50;86.80
14142;DHT22;7151;52.246;4.820;2023-08-24T15:44:36;26.50;86.10
14142;DHT22;7151;52.246;4.820;2023-08-24T15:47:02;26.50;86.20
14142;DHT22;7151;52.246;4.820;2023-08-24T15:49:27;26.50;86.10
14142;DHT22;7151;52.246;4.820;2023-08-24T15:51:53;26.60;86.20
14142;DHT22;7151;52.246;4.820;2023-08-24T15:54:19;26.60;86.20